Time;durP1;ratioP1;P1;durP2;ratioP2;P2;SDS_P1;SDS_P2;PMS_P1;PMS_P2;Temp;Humidity;BMP_temperature;BMP_pressure;BME280_temperature;BME280_humidity;BME280_pressure;Samples;Min_cycle;Max_cycle;Signal;HPM_P1;HPM_P2
2022/03/17 00:00:19;;;;;;;2.43;2.00;;;;;;;;;;5033415;28;20699;-84
2022/03/17 00:02:46;;;;;;;2.10;1.90;;;;;;;;;;5033611;28;20194;-85
2022/03/17 00:05:15;;;;;;;2.57;2.37;;;;;;;;;;5033428;28;20203;-85
2022/03/17 00:07:44;;;;;;;2.00;1.90;;;;;;;;;;5033335;28;20199;-83
2022/03/17 00:10:14;;;;;;;1.80;1.70;;;;;;;;;;5033346;28;20205;-84
2022/03/17 00:12:42;;;;;;;2.53;2.33;;;;;;;;;;5033332;28;20289;-84
2022/03/17 00:15:10;;;;;;;2.80;2.60;;;;;;;;;;5033258;28;20202;-84
2022/03/17 00:17:37;;;;;;;2.83;2.63;;;;;;;;;;5033376;28;20273;-84
2022/03/17 00:20:10;;;;;;;2.40;2.20;;;;;;;;;;5032774;28;20276;-84
2022/03/17 00:22:39;;;;;;;2.80;2.60;;;;;;;;;;5033288;28;20193;-84
2022/03/17 00:25:07;;;;;;;2.43;2.23;;;;;;;;;;5033348;28;20203;-85
2022/03/17 00:27:35;;;;;;;2.90;2.70;;;;;;;;;;5033285;28;20225;-83
2022/03/17 00:30:02;;;;;;;3.17;2.87;;;;;;;;;;5032932;28;20281;-84
2022/03/17 00:32:29;;;;;;;3.33;3.03;;;;;;;;;;5033159;28;20198;-84
2022/03/17 00:37:42;;;;;;;3.63;3.33;;;;;;;;;;5033077;28;20182;-84
2022/03/17 00:40:10;;;;;;;3.50;3.20;;;;;;;;;;5033052;28;20233;-84
2022/03/17 00:42:39;;;;;;;4.53;3.97;;;;;;;;;;5032891;28;20199;-84
2022/03/17 00:45:09;;;;;;;3.83;3.47;;;;;;;;;;5032188;28;20198;-84
2022/03/17 00:47:36;;;;;;;2.80;2.60;;;;;;;;;;5032834;28;20667;-84
2022/03/17 00:50:04;;;;;;;3.60;3.30;;;;;;;;;;5032689;28;20786;-84
2022/03/17 00:52:31;;;;;;;3.27;2.97;;;;;;;;;;5032956;28;20203;-84
2022/03/17 00:55:00;;;;;;;3.30;3.00;;;;;;;;;;5032664;28;20286;-84
2022/03/17 00:57:27;;;;;;;3.07;2.87;;;;;;;;;;5032653;28;20211;-85
2022/03/17 00:59:54;;;;;;;3.53;3.10;;;;;;;;;;5032411;28;20218;-85
2022/03/17 01:02:21;;;;;;;3.57;3.27;;;;;;;;;;5032671;28;20672;-84
2022/03/17 01:04:48;;;;;;;3.63;3.33;;;;;;;;;;5032459;28;20199;-84
2022/03/17 01:07:16;;;;;;;3.77;3.47;;;;;;;;;;5032781;28;20202;-84
2022/03/17 01:09:43;;;;;;;4.60;4.20;;;;;;;;;;5032552;28;20198;-85
2022/03/17 01:12:12;;;;;;;5.33;4.83;;;;;;;;;;5032210;28;20723;-85
2022/03/17 01:14:39;;;;;;;5.83;5.33;;;;;;;;;;5032471;28;20203;-84
2022/03/17 01:17:06;;;;;;;6.10;5.43;;;;;;;;;;5032041;28;20228;-85
2022/03/17 01:19:33;;;;;;;7.97;7.20;;;;;;;;;;5031975;28;20233;-85
2022/03/17 01:22:01;;;;;;;7.27;6.53;;;;;;;;;;5032307;28;20202;-85
2022/03/17 01:24:28;;;;;;;8.93;8.00;;;;;;;;;;5031886;28;20198;-85
2022/03/17 01:26:55;;;;;;;12.07;9.63;;;;;;;;;;5032228;28;20206;-85
2022/03/17 01:29:26;;;;;;;12.50;9.93;;;;;;;;;;5032441;28;20570;-84
2022/03/17 01:31:54;;;;;;;11.30;9.47;;;;;;;;;;5031951;28;20197;-85
2022/03/17 01:34:21;;;;;;;10.20;9.03;;;;;;;;;;5031949;28;20201;-85
2022/03/17 01:36:48;;;;;;;10.77;8.90;;;;;;;;;;5032033;28;20202;-84
2022/03/17 01:39:15;;;;;;;11.03;9.47;;;;;;;;;;5031850;28;20223;-84
2022/03/17 01:41:42;;;;;;;11.20;10.00;;;;;;;;;;5031719;28;20205;-85
2022/03/17 01:44:09;;;;;;;14.43;12.23;;;;;;;;;;5031932;28;20194;-84
2022/03/17 01:49:19;;;;;;;15.13;12.77;;;;;;;;;;5031400;28;20202;-84
2022/03/17 01:51:48;;;;;;;20.50;14.50;;;;;;;;;;5029019;28;20214;-85
2022/03/17 01:54:15;;;;;;;17.67;14.90;;;;;;;;;;5038629;28;20236;-84
2022/03/17 01:56:44;;;;;;;18.80;14.23;;;;;;;;;;5045893;28;20210;-86
2022/03/17 01:59:12;;;;;;;20.03;16.80;;;;;;;;;;5035744;28;20232;-85
2022/03/17 02:01:40;;;;;;;20.27;16.20;;;;;;;;;;5035835;28;20199;-86
2022/03/17 02:04:08;;;;;;;22.63;17.70;;;;;;;;;;5036118;28;20225;-84
2022/03/17 02:06:37;;;;;;;26.03;19.37;;;;;;;;;;5035863;28;20198;-86
2022/03/17 02:09:04;;;;;;;21.10;17.10;;;;;;;;;;5035391;28;20205;-86
2022/03/17 02:14:22;;;;;;;22.93;18.70;;;;;;;;;;5035585;28;20675;-85
2022/03/17 02:16:51;;;;;;;26.27;17.37;;;;;;;;;;5035791;28;20617;-85
2022/03/17 02:19:20;;;;;;;24.87;20.60;;;;;;;;;;5034372;28;20225;-85
2022/03/17 02:21:48;;;;;;;28.50;17.97;;;;;;;;;;5035400;28;20203;-84
2022/03/17 02:27:02;;;;;;;25.93;19.93;;;;;;;;;;5035679;28;20186;-85
2022/03/17 02:29:30;;;;;;;29.50;19.23;;;;;;;;;;5035114;28;20248;-85
2022/03/17 02:31:58;;;;;;;27.40;20.67;;;;;;;;;;5035219;28;20206;-85
2022/03/17 02:34:25;;;;;;;28.30;21.20;;;;;;;;;;5035031;28;20194;-85
2022/03/17 02:36:54;;;;;;;30.20;22.23;;;;;;;;;;5034936;28;20582;-85
2022/03/17 02:39:23;;;;;;;30.50;23.10;;;;;;;;;;5034808;28;20226;-85
2022/03/17 02:41:50;;;;;;;29.87;21.33;;;;;;;;;;5034279;28;20656;-85
2022/03/17 02:44:17;;;;;;;31.93;23.60;;;;;;;;;;5034770;28;20209;-85
2022/03/17 02:46:44;;;;;;;34.83;24.50;;;;;;;;;;5034744;28;20207;-85
2022/03/17 02:49:15;;;;;;;39.83;27.50;;;;;;;;;;5034901;28;20202;-86
2022/03/17 02:51:42;;;;;;;39.33;26.10;;;;;;;;;;5034879;28;20193;-86
2022/03/17 02:54:09;;;;;;;35.93;24.50;;;;;;;;;;5034965;28;20202;-84
2022/03/17 02:56:38;;;;;;;35.00;26.43;;;;;;;;;;5034918;28;20305;-86
2022/03/17 02:59:05;;;;;;;34.13;25.57;;;;;;;;;;5034457;28;20199;-85
2022/03/17 03:01:33;;;;;;;36.50;26.67;;;;;;;;;;5034922;28;20198;-85
2022/03/17 03:04:00;;;;;;;34.13;24.67;;;;;;;;;;5034071;28;20627;-86
2022/03/17 03:06:27;;;;;;;37.63;24.87;;;;;;;;;;5034274;28;20202;-85
2022/03/17 03:08:54;;;;;;;32.07;23.63;;;;;;;;;;5034092;28;20828;-85
2022/03/17 03:11:22;;;;;;;38.47;25.60;;;;;;;;;;5034683;28;20230;-85
2022/03/17 03:13:50;;;;;;;38.03;26.57;;;;;;;;;;5034700;28;20183;-86
2022/03/17 03:16:17;;;;;;;33.60;24.77;;;;;;;;;;5034436;28;20210;-86
2022/03/17 03:18:45;;;;;;;37.13;25.23;;;;;;;;;;5034148;28;20207;-85
2022/03/17 03:21:12;;;;;;;31.93;23.50;;;;;;;;;;5034309;28;20646;-85
2022/03/17 03:23:39;;;;;;;36.83;25.57;;;;;;;;;;5034551;28;20203;-86
2022/03/17 03:26:06;;;;;;;38.90;24.40;;;;;;;;;;5034460;28;20633;-85
2022/03/17 03:28:33;;;;;;;37.40;24.57;;;;;;;;;;5034439;28;20199;-85
2022/03/17 03:31:02;;;;;;;35.53;25.27;;;;;;;;;;5034491;28;20660;-87
2022/03/17 03:33:29;;;;;;;34.30;24.13;;;;;;;;;;5034715;28;20200;-85
2022/03/17 03:38:41;;;;;;;34.33;25.00;;;;;;;;;;5034403;28;20185;-85
2022/03/17 03:41:08;;;;;;;38.00;23.47;;;;;;;;;;5034033;28;20223;-85
2022/03/17 03:43:35;;;;;;;42.20;24.17;;;;;;;;;;5034047;28;20301;-86
2022/03/17 03:46:04;;;;;;;34.93;24.33;;;;;;;;;;5033947;28;20228;-86
2022/03/17 03:48:32;;;;;;;36.50;24.57;;;;;;;;;;5033978;28;20213;-83
2022/03/17 03:50:59;;;;;;;35.00;25.43;;;;;;;;;;5033846;28;20289;-82
2022/03/17 03:54:12;;;;;;;36.17;23.97;;;;;;;;;;5034090;28;20203;-82
2022/03/17 03:56:13;;;;;;;32.57;22.60;;;;;;;;;;5033625;28;20285;-83
2022/03/17 03:58:40;;;;;;;37.47;26.87;;;;;;;;;;5033697;28;20201;-82
2022/03/17 04:01:09;;;;;;;40.53;32.27;;;;;;;;;;5033554;28;20284;-82
2022/03/17 04:03:36;;;;;;;35.30;24.27;;;;;;;;;;5033647;28;20206;-83
2022/03/17 04:06:04;;;;;;;32.77;23.93;;;;;;;;;;5033807;28;20230;-82
2022/03/17 04:08:31;;;;;;;34.07;24.43;;;;;;;;;;5033420;28;20198;-82
2022/03/17 04:10:58;;;;;;;36.13;25.47;;;;;;;;;;5033427;28;20195;-83
2022/03/17 04:13:25;;;;;;;32.70;23.17;;;;;;;;;;5033437;28;20241;-83
2022/03/17 04:15:52;;;;;;;39.43;27.23;;;;;;;;;;5033229;28;20206;-82
2022/03/17 04:18:21;;;;;;;36.43;25.77;;;;;;;;;;5033202;28;20214;-82
2022/03/17 04:20:48;;;;;;;38.10;25.20;;;;;;;;;;5032634;28;20248;-82
2022/03/17 04:23:15;;;;;;;37.87;25.30;;;;;;;;;;5033017;28;20207;-82
2022/03/17 04:25:43;;;;;;;40.23;27.20;;;;;;;;;;5033079;28;20202;-83
2022/03/17 04:28:11;;;;;;;39.27;28.03;;;;;;;;;;5031727;28;20289;-83
2022/03/17 04:30:39;;;;;;;37.57;27.07;;;;;;;;;;5031919;28;20225;-83
2022/03/17 04:33:06;;;;;;;37.50;25.37;;;;;;;;;;5046476;28;20209;-83
2022/03/17 04:35:35;;;;;;;37.53;24.40;;;;;;;;;;5051807;28;20202;-83
2022/03/17 04:38:02;;;;;;;41.70;26.03;;;;;;;;;;5051930;28;20675;-83
2022/03/17 04:40:29;;;;;;;44.00;30.07;;;;;;;;;;5051575;28;20220;-84
2022/03/17 04:42:57;;;;;;;38.17;28.43;;;;;;;;;;5051693;28;20191;-84
2022/03/17 04:45:24;;;;;;;39.20;26.37;;;;;;;;;;5051533;28;20198;-84
2022/03/17 04:47:51;;;;;;;39.40;27.57;;;;;;;;;;5051925;28;20577;-83
2022/03/17 04:50:18;;;;;;;37.10;26.37;;;;;;;;;;5051780;28;20194;-83
2022/03/17 04:55:31;;;;;;;36.17;26.37;;;;;;;;;;5051592;28;20180;-83
2022/03/17 04:57:59;;;;;;;38.83;27.33;;;;;;;;;;5051435;28;20224;-83
2022/03/17 05:00:26;;;;;;;35.77;25.40;;;;;;;;;;5051597;28;20283;-84
2022/03/17 05:02:53;;;;;;;36.47;26.53;;;;;;;;;;5051327;28;20675;-83
2022/03/17 05:05:20;;;;;;;40.33;27.27;;;;;;;;;;5051246;28;20229;-84
2022/03/17 05:07:49;;;;;;;37.07;24.50;;;;;;;;;;5050716;28;20683;-84
2022/03/17 05:10:16;;;;;;;40.37;27.87;;;;;;;;;;5050500;28;20288;-83
2022/03/17 05:12:44;;;;;;;40.53;26.03;;;;;;;;;;5050979;28;20802;-83
2022/03/17 05:15:11;;;;;;;40.60;28.13;;;;;;;;;;5050963;28;20198;-83
2022/03/17 05:17:40;;;;;;;40.70;26.40;;;;;;;;;;5051316;28;20202;-83
2022/03/17 05:20:10;;;;;;;35.93;24.03;;;;;;;;;;5039081;28;20257;-83
2022/03/17 05:22:37;;;;;;;66.57;37.83;;;;;;;;;;5011128;28;20203;-83
2022/03/17 05:25:08;;;;;;;59.73;39.20;;;;;;;;;;5011058;28;20222;-84
2022/03/17 05:27:37;;;;;;;57.50;40.20;;;;;;;;;;5011556;28;20567;-84
2022/03/17 05:30:05;;;;;;;46.07;32.33;;;;;;;;;;5011685;28;20199;-85
2022/03/17 05:32:32;;;;;;;45.43;29.27;;;;;;;;;;5011406;28;20218;-85
2022/03/17 05:34:59;;;;;;;57.10;38.67;;;;;;;;;;5012163;28;20214;-85
2022/03/17 05:37:27;;;;;;;33.23;23.17;;;;;;;;;;5012554;28;20290;-84
2022/03/17 05:39:54;;;;;;;34.67;23.23;;;;;;;;;;5012038;28;20290;-84
2022/03/17 05:42:22;;;;;;;36.13;26.60;;;;;;;;;;5012142;28;20249;-85
2022/03/17 05:44:50;;;;;;;32.50;21.20;;;;;;;;;;5012192;28;20688;-84
2022/03/17 05:47:17;;;;;;;33.77;24.30;;;;;;;;;;5012495;28;20203;-84
2022/03/17 05:49:44;;;;;;;43.93;33.23;;;;;;;;;;5011973;28;20204;-84
2022/03/17 05:52:12;;;;;;;50.27;32.37;;;;;;;;;;5012440;28;20210;-84
2022/03/17 05:54:39;;;;;;;34.10;22.70;;;;;;;;;;5012133;28;20199;-85
2022/03/17 05:57:06;;;;;;;48.37;33.30;;;;;;;;;;5012494;28;20230;-84
2022/03/17 05:59:39;;;;;;;30.80;22.53;;;;;;;;;;5011794;28;20195;-84
2022/03/17 06:02:06;;;;;;;30.23;22.27;;;;;;;;;;5012252;28;20604;-84
2022/03/17 06:04:34;;;;;;;27.23;19.87;;;;;;;;;;5012134;28;20738;-84
2022/03/17 06:07:01;;;;;;;24.93;19.00;;;;;;;;;;5012128;28;20235;-84
2022/03/17 06:09:28;;;;;;;25.90;19.63;;;;;;;;;;5012239;28;20238;-84
2022/03/17 06:11:57;;;;;;;30.10;18.57;;;;;;;;;;5011869;28;20322;-84
2022/03/17 06:14:24;;;;;;;24.53;18.50;;;;;;;;;;5011645;28;20204;-84
2022/03/17 06:16:53;;;;;;;25.60;17.93;;;;;;;;;;5012350;28;20693;-85
2022/03/17 06:19:20;;;;;;;26.63;17.97;;;;;;;;;;5011798;28;20206;-84
2022/03/17 06:21:48;;;;;;;23.10;16.97;;;;;;;;;;5012116;28;20289;-85
2022/03/17 06:24:15;;;;;;;22.13;16.90;;;;;;;;;;5011937;28;20203;-85
2022/03/17 06:26:42;;;;;;;21.17;16.33;;;;;;;;;;5011679;28;20206;-84
2022/03/17 06:29:09;;;;;;;22.07;16.23;;;;;;;;;;5011687;28;20202;-84
2022/03/17 06:31:38;;;;;;;20.07;14.93;;;;;;;;;;5011892;28;20202;-85
2022/03/17 06:34:07;;;;;;;24.07;16.73;;;;;;;;;;5011712;28;20196;-85
2022/03/17 06:36:34;;;;;;;23.47;18.07;;;;;;;;;;5011866;28;20196;-85
2022/03/17 06:39:01;;;;;;;26.27;19.37;;;;;;;;;;5011670;28;20206;-85
2022/03/17 06:41:28;;;;;;;23.93;18.93;;;;;;;;;;5011622;28;20310;-85
2022/03/17 06:43:56;;;;;;;20.40;14.63;;;;;;;;;;5013875;28;20200;-85
2022/03/17 06:46:23;;;;;;;28.40;19.67;;;;;;;;;;5015076;28;20203;-85
2022/03/17 06:48:50;;;;;;;19.90;15.87;;;;;;;;;;5015641;28;20282;-85
2022/03/17 06:51:19;;;;;;;25.90;17.93;;;;;;;;;;5015171;28;20373;-85
2022/03/17 06:53:46;;;;;;;28.23;19.73;;;;;;;;;;5015267;28;20200;-85
2022/03/17 06:56:13;;;;;;;32.40;22.17;;;;;;;;;;5014948;28;20195;-85
2022/03/17 06:58:40;;;;;;;19.30;13.17;;;;;;;;;;5015437;28;20677;-85
2022/03/17 07:01:07;;;;;;;22.03;16.90;;;;;;;;;;5015100;28;20293;-85
2022/03/17 07:03:35;;;;;;;12.87;10.67;;;;;;;;;;5015183;28;20591;-85
2022/03/17 07:06:02;;;;;;;19.07;12.87;;;;;;;;;;5015119;28;20199;-85
2022/03/17 07:08:30;;;;;;;14.03;11.20;;;;;;;;;;5015013;28;20205;-85
2022/03/17 07:10:58;;;;;;;15.30;11.43;;;;;;;;;;5015157;28;20587;-85
2022/03/17 07:13:25;;;;;;;12.40;10.27;;;;;;;;;;5014702;28;20227;-85
2022/03/17 07:15:52;;;;;;;18.00;12.13;;;;;;;;;;5014690;28;20207;-85
2022/03/17 07:18:19;;;;;;;12.33;10.77;;;;;;;;;;5014915;28;20191;-85
2022/03/17 07:20:47;;;;;;;13.47;11.07;;;;;;;;;;5014744;28;20237;-85
2022/03/17 07:23:14;;;;;;;13.83;11.33;;;;;;;;;;5015183;28;20573;-85
2022/03/17 07:25:43;;;;;;;14.03;12.53;;;;;;;;;;5014482;28;20257;-85
2022/03/17 07:28:10;;;;;;;14.17;10.97;;;;;;;;;;5014758;28;20246;-86
2022/03/17 07:30:37;;;;;;;15.17;11.13;;;;;;;;;;5014332;28;20699;-85
2022/03/17 07:33:05;;;;;;;13.33;11.23;;;;;;;;;;5013570;28;20203;-85
2022/03/17 07:35:33;;;;;;;14.60;12.03;;;;;;;;;;5013543;28;20283;-86
2022/03/17 07:38:02;;;;;;;12.17;10.20;;;;;;;;;;5014408;28;20199;-86
2022/03/17 07:40:29;;;;;;;12.10;10.30;;;;;;;;;;5014611;28;20231;-86
2022/03/17 07:42:58;;;;;;;13.40;11.57;;;;;;;;;;5014243;28;20199;-86
2022/03/17 07:45:25;;;;;;;13.13;10.27;;;;;;;;;;5014202;28;20234;-86
2022/03/17 07:47:53;;;;;;;12.77;11.30;;;;;;;;;;5014330;28;20206;-86
2022/03/17 07:50:20;;;;;;;15.37;12.47;;;;;;;;;;5014221;28;20238;-86
2022/03/17 07:52:48;;;;;;;16.33;12.60;;;;;;;;;;5014431;28;20197;-86
2022/03/17 07:55:17;;;;;;;12.63;10.43;;;;;;;;;;5013357;28;20637;-86
2022/03/17 07:57:45;;;;;;;16.20;12.20;;;;;;;;;;5014130;28;20242;-85
2022/03/17 08:00:14;;;;;;;16.13;11.83;;;;;;;;;;5014122;28;20194;-85
2022/03/17 08:02:42;;;;;;;14.13;11.40;;;;;;;;;;5013957;28;20215;-86
2022/03/17 08:05:10;;;;;;;17.37;12.53;;;;;;;;;;5014132;28;20199;-86
2022/03/17 08:07:37;;;;;;;15.30;12.43;;;;;;;;;;5013842;28;20243;-86
2022/03/17 08:10:05;;;;;;;12.40;11.20;;;;;;;;;;5013921;28;20579;-86
2022/03/17 08:12:33;;;;;;;15.40;11.77;;;;;;;;;;5013807;28;20236;-87
2022/03/17 08:15:01;;;;;;;14.67;11.10;;;;;;;;;;5013760;28;20203;-86
2022/03/17 08:17:30;;;;;;;13.63;11.40;;;;;;;;;;5013945;28;20207;-86
2022/03/17 08:19:57;;;;;;;16.57;12.30;;;;;;;;;;5013679;28;20242;-86
2022/03/17 08:22:25;;;;;;;12.83;11.10;;;;;;;;;;5013292;28;20223;-86
2022/03/17 08:24:52;;;;;;;11.23;9.83;;;;;;;;;;5013788;28;20204;-86
2022/03/17 08:27:19;;;;;;;11.73;10.50;;;;;;;;;;5013521;28;20210;-86
2022/03/17 08:29:48;;;;;;;11.37;9.60;;;;;;;;;;5013465;28;20203;-86
2022/03/17 08:32:16;;;;;;;11.40;9.97;;;;;;;;;;5013325;28;20195;-86
2022/03/17 08:34:45;;;;;;;9.87;8.83;;;;;;;;;;5013687;28;20278;-86
2022/03/17 08:37:12;;;;;;;12.53;10.20;;;;;;;;;;5013507;28;20200;-86
2022/03/17 08:39:39;;;;;;;14.23;10.43;;;;;;;;;;5013191;28;20198;-86
2022/03/17 08:42:07;;;;;;;15.10;10.80;;;;;;;;;;5013289;28;20223;-86
2022/03/17 08:44:35;;;;;;;10.87;9.50;;;;;;;;;;5013246;28;20203;-86
2022/03/17 08:49:48;;;;;;;11.07;9.97;;;;;;;;;;5013445;28;20198;-86
2022/03/17 08:52:15;;;;;;;13.23;11.80;;;;;;;;;;5013124;28;20196;-86
2022/03/17 08:54:44;;;;;;;22.27;17.10;;;;;;;;;;5013137;28;20564;-86
2022/03/17 08:57:11;;;;;;;13.97;11.37;;;;;;;;;;5013104;28;20287;-86
2022/03/17 08:59:39;;;;;;;11.30;10.10;;;;;;;;;;5013258;28;20638;-86
2022/03/17 09:02:08;;;;;;;9.43;8.33;;;;;;;;;;5012866;28;20318;-86
2022/03/17 09:04:35;;;;;;;9.90;8.90;;;;;;;;;;5012804;28;20207;-86
2022/03/17 09:07:05;;;;;;;9.20;8.20;;;;;;;;;;5012797;28;20201;-86
2022/03/17 09:09:33;;;;;;;9.80;8.80;;;;;;;;;;5013120;28;20282;-86
2022/03/17 09:12:05;;;;;;;9.07;7.50;;;;;;;;;;5012666;28;20227;-86
2022/03/17 09:14:32;;;;;;;7.70;7.00;;;;;;;;;;5012678;28;20188;-86
2022/03/17 09:16:59;;;;;;;9.80;7.47;;;;;;;;;;5012744;28;20233;-86
2022/03/17 09:19:27;;;;;;;7.73;6.77;;;;;;;;;;5012630;28;20676;-86
2022/03/17 09:21:54;;;;;;;8.20;7.23;;;;;;;;;;5012326;28;20234;-86
2022/03/17 09:24:23;;;;;;;8.70;6.77;;;;;;;;;;5012618;28;20288;-86
2022/03/17 09:26:50;;;;;;;7.63;6.83;;;;;;;;;;5012571;28;20234;-86
2022/03/17 09:29:17;;;;;;;8.03;6.60;;;;;;;;;;5012633;28;20196;-86
2022/03/17 09:31:45;;;;;;;6.80;6.10;;;;;;;;;;5012498;28;20278;-86
2022/03/17 09:34:12;;;;;;;6.57;5.97;;;;;;;;;;5012350;28;20199;-86
2022/03/17 09:36:40;;;;;;;6.83;6.13;;;;;;;;;;5012622;28;20226;-86
2022/03/17 09:41:54;;;;;;;7.87;7.03;;;;;;;;;;5012403;28;20226;-86
2022/03/17 09:44:21;;;;;;;7.23;6.53;;;;;;;;;;5012402;28;20192;-86
2022/03/17 09:46:49;;;;;;;6.90;6.20;;;;;;;;;;5013090;28;20238;-86
2022/03/17 09:49:16;;;;;;;7.67;6.97;;;;;;;;;;5011982;28;20199;-86
2022/03/17 09:51:46;;;;;;;6.93;6.23;;;;;;;;;;5012356;28;20639;-86
2022/03/17 09:54:13;;;;;;;7.23;6.53;;;;;;;;;;5012457;28;20238;-86
2022/03/17 09:56:40;;;;;;;6.87;6.17;;;;;;;;;;5012704;28;20233;-86
2022/03/17 09:59:09;;;;;;;7.17;5.47;;;;;;;;;;5012487;28;20199;-86
2022/03/17 10:01:36;;;;;;;6.13;5.53;;;;;;;;;;5012423;28;20223;-86
2022/03/17 10:04:07;;;;;;;13.77;9.33;;;;;;;;;;5012144;28;20242;-85
2022/03/17 10:06:36;;;;;;;6.13;5.47;;;;;;;;;;5012175;28;20294;-86
2022/03/17 10:09:04;;;;;;;10.20;8.30;;;;;;;;;;5012166;28;20207;-86
2022/03/17 10:11:37;;;;;;;7.43;5.40;;;;;;;;;;5012177;28;20680;-86
2022/03/17 10:14:05;;;;;;;6.27;5.67;;;;;;;;;;5012028;28;20215;-86
2022/03/17 10:16:35;;;;;;;5.83;5.20;;;;;;;;;;5011922;28;20192;-85
2022/03/17 10:19:03;;;;;;;6.87;5.50;;;;;;;;;;5014605;28;20665;-85
2022/03/17 10:21:31;;;;;;;5.80;5.20;;;;;;;;;;5015857;28;20770;-86
2022/03/17 10:24:00;;;;;;;6.13;5.47;;;;;;;;;;5015802;28;20203;-86
2022/03/17 10:26:36;;;;;;;5.83;5.13;;;;;;;;;;5015634;28;20195;-86
2022/03/17 10:29:08;;;;;;;7.87;5.33;;;;;;;;;;5016020;28;20191;-86
2022/03/17 10:34:33;;;;;;;8.37;7.57;;;;;;;;;;5151579;27;20545;-86
2022/03/17 10:37:11;;;;;;;7.57;5.33;;;;;;;;;;5151133;27;20225;-85
2022/03/17 10:39:42;;;;;;;7.97;5.00;;;;;;;;;;5150631;27;20277;-85
2022/03/17 10:42:17;;;;;;;4.03;3.70;;;;;;;;;;5151313;27;20572;-85
2022/03/17 10:44:47;;;;;;;4.77;4.03;;;;;;;;;;5150764;27;20205;-85
2022/03/17 10:47:15;;;;;;;5.90;4.53;;;;;;;;;;5150749;27;20170;-85
2022/03/17 10:50:05;;;;;;;6.67;6.07;;;;;;;;;;5150614;27;20198;-85
2022/03/17 10:52:46;;;;;;;28.57;13.93;;;;;;;;;;5151112;27;20620;-85
2022/03/17 10:55:14;;;;;;;16.23;11.47;;;;;;;;;;5150726;27;20200;-85
2022/03/17 10:57:41;;;;;;;11.93;10.53;;;;;;;;;;5150643;27;20236;-85
2022/03/17 11:00:20;;;;;;;15.17;12.47;;;;;;;;;;5150799;27;20624;-85
2022/03/17 11:02:49;;;;;;;9.20;7.37;;;;;;;;;;5150846;27;20186;-85
2022/03/17 11:05:19;;;;;;;22.67;15.30;;;;;;;;;;5150648;27;20266;-85
2022/03/17 11:07:47;;;;;;;7.63;5.30;;;;;;;;;;5150608;27;20273;-85
2022/03/17 11:10:18;;;;;;;7.90;6.37;;;;;;;;;;5150305;27;20190;-85
2022/03/17 11:12:46;;;;;;;5.13;4.63;;;;;;;;;;5150259;27;20723;-85
2022/03/17 11:15:13;;;;;;;4.70;4.17;;;;;;;;;;5150158;27;20243;-85
2022/03/17 11:17:44;;;;;;;8.07;7.23;;;;;;;;;;5150193;27;20222;-85
2022/03/17 11:20:13;;;;;;;6.73;4.43;;;;;;;;;;5150464;27;20183;-85
2022/03/17 11:22:44;;;;;;;5.40;4.83;;;;;;;;;;5150192;27;20195;-85
2022/03/17 11:25:23;;;;;;;8.87;8.07;;;;;;;;;;5149886;27;20209;-85
2022/03/17 11:27:52;;;;;;;8.47;5.47;;;;;;;;;;5150207;27;20199;-86
2022/03/17 11:30:19;;;;;;;6.70;6.07;;;;;;;;;;5150095;27;20189;-86
2022/03/17 11:32:54;;;;;;;6.47;5.63;;;;;;;;;;5149986;27;20226;-85
2022/03/17 11:35:22;;;;;;;16.73;10.60;;;;;;;;;;5149597;27;20654;-85
2022/03/17 11:37:51;;;;;;;20.37;15.67;;;;;;;;;;5149796;27;20285;-84
2022/03/17 11:40:20;;;;;;;53.57;27.67;;;;;;;;;;5149645;27;20198;-84
2022/03/17 11:42:52;;;;;;;18.23;14.10;;;;;;;;;;5149737;27;20197;-84
2022/03/17 11:45:40;;;;;;;10.30;9.23;;;;;;;;;;5138844;27;20237;-85
2022/03/17 11:48:12;;;;;;;10.60;9.17;;;;;;;;;;5135856;27;20183;-85
2022/03/17 11:50:42;;;;;;;8.27;7.50;;;;;;;;;;5135946;27;20191;-84
2022/03/17 11:53:21;;;;;;;6.50;5.90;;;;;;;;;;5135608;27;20722;-85
2022/03/17 11:55:53;;;;;;;6.77;4.83;;;;;;;;;;5135291;27;20240;-85
2022/03/17 11:58:34;;;;;;;5.23;4.73;;;;;;;;;;5135931;27;20194;-84
2022/03/17 12:01:11;;;;;;;11.13;9.57;;;;;;;;;;5135698;27;20175;-84
2022/03/17 12:03:42;;;;;;;5.47;4.70;;;;;;;;;;5135759;27;20647;-84
2022/03/17 12:06:20;;;;;;;6.40;5.20;;;;;;;;;;5135416;27;20698;-84
2022/03/17 12:08:59;;;;;;;6.70;6.00;;;;;;;;;;5135460;27;20659;-84
2022/03/17 12:11:28;;;;;;;7.70;4.93;;;;;;;;;;5135392;27;20195;-84
2022/03/17 12:14:24;;;;;;;8.03;6.27;;;;;;;;;;5135260;27;20221;-84
2022/03/17 12:16:53;;;;;;;7.20;4.57;;;;;;;;;;5135307;27;20242;-84
2022/03/17 12:19:31;;;;;;;7.43;6.27;;;;;;;;;;5135065;27;20209;-84
2022/03/17 12:22:12;;;;;;;9.60;6.73;;;;;;;;;;5135288;27;20194;-84
2022/03/17 12:24:45;;;;;;;13.93;8.43;;;;;;;;;;5134777;27;20305;-84
2022/03/17 12:27:18;;;;;;;4.97;4.53;;;;;;;;;;5135096;27;20198;-84
2022/03/17 12:29:47;;;;;;;7.60;6.67;;;;;;;;;;5134891;27;20240;-84
2022/03/17 12:32:17;;;;;;;6.10;5.60;;;;;;;;;;5134715;27;20285;-84
2022/03/17 12:34:46;;;;;;;4.73;4.33;;;;;;;;;;5134842;27;20678;-83
2022/03/17 12:37:14;;;;;;;7.93;7.23;;;;;;;;;;5135190;27;20581;-84
2022/03/17 12:39:43;;;;;;;8.23;7.60;;;;;;;;;;5134593;27;20281;-84
2022/03/17 12:42:15;;;;;;;11.73;10.03;;;;;;;;;;5134541;27;20278;-84
2022/03/17 12:44:53;;;;;;;8.03;7.33;;;;;;;;;;5134498;27;20198;-84
2022/03/17 12:47:20;;;;;;;6.83;6.20;;;;;;;;;;5134630;27;20659;-84
2022/03/17 12:49:48;;;;;;;10.50;9.37;;;;;;;;;;5134785;27;20223;-84
2022/03/17 12:52:21;;;;;;;28.43;19.07;;;;;;;;;;5134333;27;20191;-84
2022/03/17 12:54:50;;;;;;;25.27;14.07;;;;;;;;;;5134320;27;20259;-84
2022/03/17 12:57:18;;;;;;;52.53;27.60;;;;;;;;;;5133511;27;20191;-84
2022/03/17 12:59:45;;;;;;;41.90;21.20;;;;;;;;;;5134219;27;20199;-84
2022/03/17 13:02:17;;;;;;;36.50;24.17;;;;;;;;;;5134429;27;20282;-84
2022/03/17 13:04:46;;;;;;;16.43;13.47;;;;;;;;;;5134222;27;20194;-84
2022/03/17 13:07:14;;;;;;;11.17;10.07;;;;;;;;;;5134629;27;20569;-84
2022/03/17 13:09:42;;;;;;;11.97;10.73;;;;;;;;;;5134007;27;20247;-84
2022/03/17 13:14:57;;;;;;;4.27;3.97;;;;;;;;;;5134036;27;20332;-84
2022/03/17 13:17:34;;;;;;;4.27;3.97;;;;;;;;;;5133890;27;20242;-84
2022/03/17 13:20:01;;;;;;;5.87;5.37;;;;;;;;;;5133683;27;20193;-84
2022/03/17 13:22:32;;;;;;;4.90;4.50;;;;;;;;;;5134008;27;20195;-84
2022/03/17 13:25:06;;;;;;;7.00;6.33;;;;;;;;;;5134297;27;20186;-84
2022/03/17 13:27:36;;;;;;;10.07;8.37;;;;;;;;;;5133976;27;20178;-84
2022/03/17 13:30:08;;;;;;;7.73;7.00;;;;;;;;;;5133554;27;20579;-84
2022/03/17 13:32:35;;;;;;;13.10;12.10;;;;;;;;;;5133731;27;20753;-84
2022/03/17 13:35:04;;;;;;;7.60;7.00;;;;;;;;;;5133483;27;20222;-84
2022/03/17 13:37:35;;;;;;;3.60;3.30;;;;;;;;;;5133766;27;20205;-84
2022/03/17 13:40:04;;;;;;;3.03;2.83;;;;;;;;;;5133307;27;20195;-83
2022/03/17 13:42:31;;;;;;;4.73;4.33;;;;;;;;;;5133587;27;20201;-83
2022/03/17 13:45:00;;;;;;;3.27;2.97;;;;;;;;;;5133358;27;20278;-84
2022/03/17 13:47:28;;;;;;;4.10;3.30;;;;;;;;;;5133469;27;20269;-84
2022/03/17 13:50:19;;;;;;;3.43;3.13;;;;;;;;;;5133293;27;20197;-83
2022/03/17 13:52:56;;;;;;;4.10;3.70;;;;;;;;;;5133749;27;20245;-84
2022/03/17 13:55:32;;;;;;;4.63;4.23;;;;;;;;;;5133228;27;20214;-83
2022/03/17 13:58:14;;;;;;;4.03;3.63;;;;;;;;;;5133660;27;20206;-84
2022/03/17 14:00:43;;;;;;;3.77;3.47;;;;;;;;;;5133240;27;20607;-84
2022/03/17 14:03:21;;;;;;;6.07;5.20;;;;;;;;;;5133620;27;20268;-84
2022/03/17 14:06:15;;;;;;;5.77;5.00;;;;;;;;;;5133139;27;20191;-84
2022/03/17 14:08:47;;;;;;;7.63;6.80;;;;;;;;;;5133393;27;20741;-84
2022/03/17 14:11:15;;;;;;;5.30;4.90;;;;;;;;;;5132993;27;20273;-84
2022/03/17 14:13:45;;;;;;;5.53;5.03;;;;;;;;;;5133422;27;20229;-83
2022/03/17 14:16:14;;;;;;;6.13;5.53;;;;;;;;;;5133306;27;20195;-83
2022/03/17 14:18:42;;;;;;;3.83;3.40;;;;;;;;;;5133030;27;20741;-84
2022/03/17 14:21:10;;;;;;;12.07;9.13;;;;;;;;;;5132656;27;20190;-84
2022/03/17 14:26:23;;;;;;;19.27;11.00;;;;;;;;;;5133023;27;20758;-84
2022/03/17 14:28:50;;;;;;;42.57;29.33;;;;;;;;;;5132828;27;20666;-84
2022/03/17 14:31:19;;;;;;;19.73;15.73;;;;;;;;;;5132630;28;20691;-83
2022/03/17 14:33:47;;;;;;;13.57;11.63;;;;;;;;;;5132606;27;20317;-83
2022/03/17 14:36:15;;;;;;;13.23;12.13;;;;;;;;;;5132724;28;20192;-83
2022/03/17 14:38:43;;;;;;;8.43;7.23;;;;;;;;;;5132757;27;20572;-84
2022/03/17 14:41:14;;;;;;;6.93;6.23;;;;;;;;;;5132701;28;20194;-83
2022/03/17 14:43:42;;;;;;;6.87;6.20;;;;;;;;;;5132845;28;20186;-83
2022/03/17 14:46:10;;;;;;;8.40;6.77;;;;;;;;;;5132586;28;20201;-83
2022/03/17 14:48:40;;;;;;;4.33;3.93;;;;;;;;;;5132473;28;20255;-83
2022/03/17 14:51:07;;;;;;;3.63;3.33;;;;;;;;;;5132669;27;20198;-84
2022/03/17 14:53:34;;;;;;;5.37;4.90;;;;;;;;;;5132790;27;20197;-83
2022/03/17 14:56:06;;;;;;;4.87;4.47;;;;;;;;;;5132495;28;20194;-84
2022/03/17 14:58:34;;;;;;;4.50;4.10;;;;;;;;;;5132808;27;20191;-84
2022/03/17 15:01:01;;;;;;;5.87;5.27;;;;;;;;;;5132511;28;20218;-83
2022/03/17 15:03:28;;;;;;;4.77;4.40;;;;;;;;;;5132603;28;20226;-83
2022/03/17 15:05:57;;;;;;;7.10;6.40;;;;;;;;;;5132367;28;20195;-84
2022/03/17 15:08:24;;;;;;;6.20;5.60;;;;;;;;;;5132270;28;20289;-84